createdAt,value
2023-11-07T00:00:07.284Z,24.27
2023-11-07T00:02:36.206Z,23.17
2023-11-07T00:05:05.256Z,26.77
2023-11-07T00:07:33.658Z,21.23
2023-11-07T00:10:02.091Z,20.67
2023-11-07T00:12:32.375Z,20.02
2023-11-07T00:15:00.959Z,22.00
2023-11-07T00:17:29.720Z,19.67
2023-11-07T00:19:58.751Z,18.13
2023-11-07T00:22:27.560Z,19.15
2023-11-07T00:24:56.120Z,20.17
2023-11-07T00:27:25.417Z,14.95
2023-11-07T00:29:55.163Z,18.52
2023-11-07T00:32:23.560Z,15.27
2023-11-07T00:34:52.153Z,16.30
2023-11-07T00:37:20.631Z,15.68
2023-11-07T00:39:49.315Z,14.30
2023-11-07T00:42:17.866Z,16.50
2023-11-07T00:44:46.651Z,14.45
2023-11-07T00:47:17.069Z,15.07
2023-11-07T00:49:46.394Z,14.07
2023-11-07T00:52:14.753Z,13.02
2023-11-07T00:54:43.094Z,14.60
2023-11-07T00:57:11.707Z,15.35
2023-11-07T00:59:40.113Z,16.52
2023-11-07T01:02:08.654Z,16.15
2023-11-07T01:04:38.603Z,15.25
2023-11-07T01:07:07.266Z,17.52
2023-11-07T01:09:35.752Z,15.38
2023-11-07T01:12:04.703Z,20.70
2023-11-07T01:14:33.869Z,18.20
2023-11-07T01:17:02.323Z,16.90
2023-11-07T01:19:30.935Z,15.75
2023-11-07T01:22:01.163Z,16.33
2023-11-07T01:24:29.651Z,16.17
2023-11-07T01:26:58.087Z,15.45
2023-11-07T01:29:26.440Z,15.15
2023-11-07T01:31:54.762Z,16.73
2023-11-07T01:34:23.171Z,13.88
2023-11-07T01:36:51.621Z,11.27
2023-11-07T01:39:21.507Z,11.50
2023-11-07T01:41:49.920Z,13.77
2023-11-07T01:44:18.436Z,11.32
2023-11-07T01:46:47.084Z,12.60
2023-11-07T01:49:15.707Z,12.30
2023-11-07T01:51:44.091Z,14.48
2023-11-07T01:54:12.665Z,11.80
2023-11-07T01:56:42.553Z,15.82
2023-11-07T01:59:11.044Z,11.35
2023-11-07T02:01:42.930Z,13.18
2023-11-07T02:04:11.678Z,16.03
2023-11-07T02:06:40.482Z,14.60
2023-11-07T02:09:09.613Z,21.00
2023-11-07T02:11:38.706Z,16.23
2023-11-07T02:14:08.822Z,23.20
2023-11-07T02:16:37.291Z,20.50
2023-11-07T02:19:05.762Z,20.65
2023-11-07T02:21:34.520Z,21.88
2023-11-07T02:24:04.720Z,18.60
2023-11-07T02:26:33.149Z,15.80
2023-11-07T02:29:01.567Z,18.58
2023-11-07T02:31:30.300Z,13.80
2023-11-07T02:33:58.940Z,16.45
2023-11-07T02:36:26.724Z,12.65
2023-11-07T02:38:55.260Z,14.80
2023-11-07T02:41:25.114Z,14.20
2023-11-07T02:43:53.443Z,13.10
2023-11-07T02:46:21.858Z,12.80
2023-11-07T02:48:50.783Z,16.52
2023-11-07T02:51:19.344Z,12.90
2023-11-07T02:53:48.249Z,11.18
2023-11-07T02:56:16.810Z,12.88
2023-11-07T02:58:46.614Z,11.93
2023-11-07T03:01:21.152Z,12.82
2023-11-07T03:03:50.823Z,11.93
2023-11-07T03:06:20.945Z,9.10
2023-11-07T03:08:49.485Z,11.10
2023-11-07T03:11:17.826Z,10.65
2023-11-07T03:13:47.967Z,11.05
2023-11-07T03:16:16.878Z,8.63
2023-11-07T03:18:45.384Z,11.75
2023-11-07T03:21:13.806Z,12.10
2023-11-07T03:23:42.378Z,9.90
2023-11-07T03:26:11.469Z,11.48
2023-11-07T03:28:39.959Z,15.93
2023-11-07T03:31:09.697Z,16.70
2023-11-07T03:33:38.155Z,12.20
2023-11-07T03:36:07.512Z,12.27
2023-11-07T03:38:36.108Z,12.25
2023-11-07T03:41:04.888Z,11.40
2023-11-07T03:43:34.939Z,11.18
2023-11-07T03:46:03.735Z,10.15
2023-11-07T03:48:33.632Z,13.13
2023-11-07T03:51:02.136Z,12.00
2023-11-07T03:53:30.559Z,10.45
2023-11-07T03:55:59.804Z,11.45
2023-11-07T03:58:28.193Z,12.38
2023-11-07T04:00:58.348Z,11.43
2023-11-07T04:03:27.421Z,15.52
2023-11-07T04:05:57.365Z,18.98
2023-11-07T04:08:25.880Z,14.25
2023-11-07T04:10:54.284Z,11.57
2023-11-07T04:13:22.572Z,12.23
2023-11-07T04:15:51.048Z,11.32
2023-11-07T04:18:20.270Z,9.80
2023-11-07T04:20:48.710Z,10.57
2023-11-07T04:23:18.564Z,17.30
2023-11-07T04:25:48.534Z,14.80
2023-11-07T04:28:18.032Z,13.18
2023-11-07T04:30:46.660Z,13.10
2023-11-07T04:33:15.250Z,12.02
2023-11-07T04:35:43.931Z,12.50
2023-11-07T04:38:12.434Z,10.57
2023-11-07T04:40:42.502Z,13.93
2023-11-07T04:43:11.009Z,11.55
2023-11-07T04:45:39.371Z,11.45
2023-11-07T04:48:08.587Z,11.50
2023-11-07T04:50:37.712Z,10.95
2023-11-07T04:53:06.327Z,10.25
2023-11-07T04:55:34.961Z,14.75
2023-11-07T04:58:04.699Z,10.48
2023-11-07T05:00:33.093Z,15.68
2023-11-07T05:03:01.563Z,13.60
2023-11-07T05:05:31.661Z,11.25
2023-11-07T05:08:00.719Z,10.05
2023-11-07T05:10:29.122Z,15.23
2023-11-07T05:12:57.591Z,16.17
2023-11-07T05:15:27.387Z,12.43
2023-11-07T05:17:56.266Z,14.15
2023-11-07T05:20:24.921Z,12.90
2023-11-07T05:22:53.270Z,14.10
2023-11-07T05:25:21.666Z,15.02
2023-11-07T05:27:50.123Z,15.05
2023-11-07T05:30:18.618Z,13.52
2023-11-07T05:32:49.904Z,14.15
2023-11-07T05:35:18.428Z,17.02
2023-11-07T05:37:47.704Z,17.00
2023-11-07T05:40:18.307Z,15.60
2023-11-07T05:42:46.879Z,17.60
2023-11-07T05:45:15.310Z,22.08
2023-11-07T05:47:44.246Z,21.50
2023-11-07T05:50:14.396Z,19.83
2023-11-07T05:52:42.996Z,21.90
2023-11-07T05:55:11.985Z,19.20
2023-11-07T05:57:40.584Z,23.48
2023-11-07T06:00:12.341Z,26.17
2023-11-07T06:02:40.099Z,36.00
2023-11-07T06:05:09.519Z,41.22
2023-11-07T06:07:39.713Z,38.05
2023-11-07T06:10:09.906Z,35.45
2023-11-07T06:12:38.556Z,51.83
2023-11-07T06:15:08.778Z,41.92
2023-11-07T06:17:37.475Z,32.10
2023-11-07T06:20:07.718Z,30.35
2023-11-07T06:22:36.256Z,25.60
2023-11-07T06:25:08.220Z,25.38
2023-11-07T06:27:36.703Z,29.98
2023-11-07T06:30:08.218Z,33.35
2023-11-07T06:32:37.134Z,26.55
2023-11-07T06:35:06.963Z,25.02
2023-11-07T06:37:35.627Z,28.63
2023-11-07T06:40:08.634Z,27.40
2023-11-07T06:42:37.053Z,25.40
2023-11-07T06:45:07.015Z,35.50
2023-11-07T06:47:35.660Z,30.15
2023-11-07T06:50:04.123Z,37.75
2023-11-07T06:52:32.918Z,40.63
2023-11-07T06:55:02.051Z,38.05
2023-11-07T06:57:31.910Z,40.45
2023-11-07T07:00:00.517Z,36.72
2023-11-07T07:02:29.001Z,38.35
2023-11-07T07:05:00.405Z,36.33
2023-11-07T07:07:29.368Z,42.87
2023-11-07T07:09:59.348Z,38.45
2023-11-07T07:12:28.832Z,40.13
2023-11-07T07:14:58.696Z,58.90
2023-11-07T07:17:28.816Z,46.97
2023-11-07T07:19:58.965Z,35.67
2023-11-07T07:22:29.892Z,28.08
2023-11-07T07:25:01.014Z,23.08
2023-11-07T07:27:29.581Z,23.13
2023-11-07T07:30:00.652Z,19.50
2023-11-07T07:32:29.152Z,22.02
2023-11-07T07:34:57.969Z,21.88
2023-11-07T07:37:26.369Z,23.90
2023-11-07T07:39:54.798Z,24.42
2023-11-07T07:42:25.017Z,21.92
2023-11-07T07:44:53.400Z,27.42
2023-11-07T07:47:23.249Z,25.38
2023-11-07T07:49:52.250Z,30.58
2023-11-07T07:52:24.147Z,34.15
2023-11-07T07:55:07.050Z,33.47
2023-11-07T07:57:43.081Z,40.40
2023-11-07T08:00:15.171Z,37.22
2023-11-07T08:02:46.843Z,35.45
2023-11-07T08:05:18.295Z,37.35
2023-11-07T08:07:46.936Z,38.65
2023-11-07T08:10:19.491Z,50.90
2023-11-07T08:12:48.568Z,47.38
2023-11-07T08:15:18.066Z,49.80
2023-11-07T08:17:49.713Z,44.47
2023-11-07T08:20:20.653Z,41.30
2023-11-07T08:22:50.155Z,32.70
2023-11-07T08:25:19.614Z,30.83
2023-11-07T08:27:50.104Z,33.80
2023-11-07T08:30:24.144Z,31.42
2023-11-07T08:32:54.854Z,27.25
2023-11-07T08:35:24.356Z,23.70
2023-11-07T08:37:52.804Z,32.63
2023-11-07T08:40:22.859Z,35.78
2023-11-07T08:42:52.796Z,27.42
2023-11-07T08:45:22.921Z,31.83
2023-11-07T08:47:54.075Z,25.20
2023-11-07T08:50:23.047Z,31.48
2023-11-07T08:52:52.253Z,39.15
2023-11-07T08:55:22.824Z,27.90
2023-11-07T08:57:51.605Z,26.83
2023-11-07T09:00:24.450Z,29.35
2023-11-07T09:02:55.159Z,23.60
2023-11-07T09:05:25.988Z,56.05
2023-11-07T09:07:55.637Z,47.85
2023-11-07T09:10:24.109Z,16.35
2023-11-07T09:12:52.615Z,21.38
2023-11-07T09:15:24.965Z,19.92
2023-11-07T09:17:55.549Z,13.30
2023-11-07T09:20:24.292Z,15.30
2023-11-07T09:22:54.265Z,17.20
2023-11-07T09:25:23.804Z,10.98
2023-11-07T09:27:53.389Z,13.77
2023-11-07T09:30:22.421Z,10.40
2023-11-07T09:32:52.522Z,12.50
2023-11-07T09:35:24.320Z,12.40
2023-11-07T09:37:53.148Z,11.85
2023-11-07T09:40:26.393Z,12.45
2023-11-07T09:42:56.218Z,11.23
2023-11-07T09:45:25.827Z,10.25
2023-11-07T09:47:57.520Z,10.05
2023-11-07T09:50:27.863Z,8.65
2023-11-07T09:52:56.699Z,8.30
2023-11-07T09:55:31.069Z,16.30
2023-11-07T09:58:12.999Z,10.52
2023-11-07T10:00:47.222Z,11.70
2023-11-07T10:03:17.381Z,13.13
2023-11-07T10:05:49.673Z,11.80
2023-11-07T10:08:18.686Z,12.50
2023-11-07T10:11:10.320Z,12.40
2023-11-07T10:13:39.291Z,13.57
2023-11-07T10:18:51.351Z,11.73
2023-11-07T10:21:33.217Z,10.93
2023-11-07T10:24:02.017Z,10.02
2023-11-07T10:26:31.677Z,9.63
2023-11-07T10:29:17.906Z,7.25
2023-11-07T10:32:01.653Z,12.85
2023-11-07T10:34:30.322Z,8.90
2023-11-07T10:37:01.272Z,10.77
2023-11-07T10:39:31.591Z,8.25
2023-11-07T10:42:19.240Z,9.10
2023-11-07T10:44:49.912Z,10.98
2023-11-07T10:47:21.324Z,8.40
2023-11-07T10:49:52.906Z,11.13
2023-11-07T10:52:22.923Z,10.05
2023-11-07T10:54:51.388Z,10.30
2023-11-07T10:57:24.028Z,8.75
2023-11-07T11:02:29.585Z,10.75
2023-11-07T11:05:01.155Z,11.23
2023-11-07T11:07:33.403Z,9.23
2023-11-07T11:10:04.584Z,11.38
2023-11-07T11:12:36.283Z,10.48
2023-11-07T11:15:06.080Z,73.28
2023-11-07T11:17:41.573Z,50.63
2023-11-07T11:20:24.048Z,14.88
2023-11-07T11:23:01.527Z,21.35
2023-11-07T11:25:42.323Z,16.25
2023-11-07T11:28:10.812Z,13.73
2023-11-07T11:30:41.930Z,14.07
2023-11-07T11:33:12.728Z,10.88
2023-11-07T11:35:42.922Z,11.10
2023-11-07T11:38:14.998Z,12.15
2023-11-07T11:40:56.190Z,17.33
2023-11-07T11:43:27.016Z,9.23
2023-11-07T11:46:00.205Z,12.23
2023-11-07T11:49:06.638Z,8.98
2023-11-07T11:51:37.024Z,18.10
2023-11-07T11:54:08.552Z,9.85
2023-11-07T11:56:57.605Z,13.50
2023-11-07T11:59:27.279Z,10.50
2023-11-07T12:01:57.609Z,19.77
2023-11-07T12:04:34.847Z,12.65
2023-11-07T12:07:23.490Z,26.08
2023-11-07T12:09:57.438Z,14.35
2023-11-07T12:12:26.610Z,12.48
2023-11-07T12:14:56.117Z,13.27
2023-11-07T12:17:27.004Z,10.63
2023-11-07T12:20:04.522Z,10.52
2023-11-07T12:22:36.670Z,11.32
2023-11-07T12:25:10.939Z,10.02
2023-11-07T12:27:39.397Z,8.27
2023-11-07T12:30:18.850Z,8.63
2023-11-07T12:32:47.762Z,9.13
2023-11-07T12:35:20.492Z,10.52
2023-11-07T12:40:20.831Z,8.75
2023-11-07T12:42:54.119Z,8.75
2023-11-07T12:45:29.949Z,8.30
2023-11-07T12:48:00.120Z,10.82
2023-11-07T12:50:34.477Z,10.65
2023-11-07T12:53:05.087Z,9.13
2023-11-07T12:55:36.998Z,9.95
2023-11-07T12:58:06.985Z,12.95
2023-11-07T13:00:56.605Z,14.18
2023-11-07T13:03:26.668Z,12.15
2023-11-07T13:05:59.639Z,10.57
2023-11-07T13:08:29.698Z,15.82
2023-11-07T13:11:17.042Z,13.98
2023-11-07T13:13:48.108Z,15.32
2023-11-07T13:16:17.796Z,9.98
2023-11-07T13:18:47.354Z,18.73
2023-11-07T13:21:16.310Z,12.73
2023-11-07T13:23:44.769Z,14.38
2023-11-07T13:26:15.638Z,67.93
2023-11-07T13:28:45.272Z,27.10
2023-11-07T13:31:15.448Z,11.68
2023-11-07T13:33:46.913Z,11.57
2023-11-07T13:36:17.113Z,13.83
2023-11-07T13:38:47.946Z,9.98
2023-11-07T13:41:18.302Z,11.48
2023-11-07T13:43:46.872Z,27.55
2023-11-07T13:46:19.324Z,15.68
2023-11-07T13:48:50.278Z,12.10
2023-11-07T13:51:19.096Z,12.68
2023-11-07T13:53:47.476Z,32.90
2023-11-07T13:56:17.317Z,20.70
2023-11-07T13:58:45.755Z,15.70
2023-11-07T14:01:14.990Z,10.52
2023-11-07T14:03:43.699Z,15.73
2023-11-07T14:06:12.651Z,10.63
2023-11-07T14:08:42.279Z,12.07
2023-11-07T14:11:11.441Z,12.80
2023-11-07T14:13:41.287Z,19.67
2023-11-07T14:16:09.875Z,17.38
2023-11-07T14:18:39.058Z,17.77
2023-11-07T14:21:07.686Z,22.42
2023-11-07T14:23:36.878Z,54.13
2023-11-07T14:26:07.854Z,24.55
2023-11-07T14:28:43.495Z,26.77
2023-11-07T14:31:19.979Z,26.30
2023-11-07T14:33:48.994Z,29.95
2023-11-07T14:36:17.943Z,34.75
2023-11-07T14:38:46.867Z,29.98
2023-11-07T14:41:15.705Z,28.35
2023-11-07T14:43:44.213Z,27.67
2023-11-07T14:46:12.616Z,27.55
2023-11-07T14:48:42.521Z,36.35
2023-11-07T14:51:11.162Z,36.20
2023-11-07T14:53:39.616Z,33.88
2023-11-07T14:56:09.172Z,34.63
2023-11-07T14:58:37.602Z,33.45
2023-11-07T15:01:07.650Z,26.63
2023-11-07T15:03:36.196Z,30.65
2023-11-07T15:06:06.434Z,34.10
2023-11-07T15:08:36.137Z,32.58
2023-11-07T15:11:04.551Z,31.92
2023-11-07T15:13:33.564Z,33.53
2023-11-07T15:16:03.184Z,33.22
2023-11-07T15:18:32.265Z,33.40
2023-11-07T15:21:00.822Z,37.05
2023-11-07T15:23:30.662Z,30.33
2023-11-07T15:25:59.146Z,32.03
2023-11-07T15:28:27.459Z,33.83
2023-11-07T15:30:55.929Z,46.58
2023-11-07T15:33:25.206Z,43.03
2023-11-07T15:35:53.752Z,44.00
2023-11-07T15:38:22.125Z,45.20
2023-11-07T15:40:51.916Z,42.65
2023-11-07T15:43:20.310Z,41.85
2023-11-07T15:45:48.819Z,45.47
2023-11-07T15:48:17.339Z,44.13
2023-11-07T15:50:45.901Z,73.43
2023-11-07T15:53:14.970Z,54.35
2023-11-07T15:55:43.626Z,55.67
2023-11-07T15:58:14.341Z,62.83
2023-11-07T16:00:44.293Z,66.15
2023-11-07T16:03:13.715Z,68.75
2023-11-07T16:05:43.767Z,56.38
2023-11-07T16:08:12.394Z,64.75
2023-11-07T16:10:40.737Z,66.00
2023-11-07T16:13:09.926Z,68.05
2023-11-07T16:15:40.103Z,72.97
2023-11-07T16:18:08.686Z,72.95
2023-11-07T16:20:37.423Z,70.25
2023-11-07T16:23:06.984Z,65.25
2023-11-07T16:25:35.601Z,72.00
2023-11-07T16:28:06.514Z,74.07
2023-11-07T16:30:35.820Z,66.38
2023-11-07T16:33:07.835Z,81.20
2023-11-07T16:35:36.399Z,85.30
2023-11-07T16:38:05.130Z,79.93
2023-11-07T16:40:33.657Z,70.03
2023-11-07T16:43:02.192Z,70.28
2023-11-07T16:45:30.933Z,79.03
2023-11-07T16:48:00.039Z,62.65
2023-11-07T16:50:30.723Z,66.22
2023-11-07T16:52:59.575Z,46.70
2023-11-07T16:55:28.482Z,46.80
2023-11-07T16:57:59.711Z,41.58
2023-11-07T17:00:29.233Z,44.72
2023-11-07T17:02:59.198Z,39.50
2023-11-07T17:05:31.845Z,40.03
2023-11-07T17:08:02.151Z,44.75
2023-11-07T17:10:32.611Z,56.85
2023-11-07T17:13:02.628Z,67.93
2023-11-07T17:15:32.259Z,64.38
2023-11-07T17:18:03.869Z,69.63
2023-11-07T17:20:36.099Z,58.97
2023-11-07T17:23:05.919Z,64.68
2023-11-07T17:25:35.530Z,49.67
2023-11-07T17:28:04.712Z,61.63
2023-11-07T17:30:33.348Z,82.97
2023-11-07T17:33:02.328Z,84.53
2023-11-07T17:35:34.429Z,84.78
2023-11-07T17:38:03.569Z,83.90
2023-11-07T17:40:33.982Z,143.73
2023-11-07T17:43:04.095Z,133.27
2023-11-07T17:45:34.051Z,94.65
2023-11-07T17:48:04.643Z,89.00
2023-11-07T17:50:38.009Z,81.65
2023-11-07T17:53:08.582Z,68.53
2023-11-07T17:55:39.431Z,73.80
2023-11-07T17:58:11.152Z,64.55
2023-11-07T18:00:39.588Z,60.92
2023-11-07T18:03:10.943Z,62.08
2023-11-07T18:05:44.712Z,51.67
2023-11-07T18:08:14.261Z,62.33
2023-11-07T18:10:46.299Z,60.00
2023-11-07T18:13:15.646Z,66.85
2023-11-07T18:15:47.834Z,65.75
2023-11-07T18:18:18.160Z,67.03
2023-11-07T18:20:58.253Z,70.18
2023-11-07T18:23:32.532Z,58.75
2023-11-07T18:26:03.862Z,58.90
2023-11-07T18:28:34.768Z,62.90
2023-11-07T18:31:05.916Z,68.03
2023-11-07T18:33:36.203Z,65.45
2023-11-07T18:36:10.652Z,66.00
2023-11-07T18:38:42.948Z,61.70
2023-11-07T18:41:15.309Z,72.15
2023-11-07T18:43:44.538Z,85.95
2023-11-07T18:46:16.481Z,108.63
2023-11-07T18:48:52.116Z,131.55
2023-11-07T18:51:28.275Z,116.15
2023-11-07T18:53:59.398Z,107.68
2023-11-07T18:56:31.369Z,91.75
2023-11-07T18:59:13.763Z,90.50
2023-11-07T19:01:53.563Z,89.30
2023-11-07T19:04:29.099Z,90.50
2023-11-07T19:07:22.316Z,84.25
2023-11-07T19:09:54.687Z,89.22
2023-11-07T19:12:28.354Z,100.53
2023-11-07T19:15:09.509Z,92.60
2023-11-07T19:17:40.876Z,99.00
2023-11-07T19:20:16.848Z,103.93
2023-11-07T19:22:53.668Z,98.60
2023-11-07T19:25:25.338Z,87.30
2023-11-07T19:27:56.865Z,88.10
2023-11-07T19:30:27.690Z,87.68
2023-11-07T19:32:59.992Z,89.43
2023-11-07T19:35:33.319Z,86.82
2023-11-07T19:38:11.651Z,85.45
2023-11-07T19:40:48.878Z,89.75
2023-11-07T19:43:34.624Z,85.75
2023-11-07T19:46:13.024Z,76.38
2023-11-07T19:48:53.730Z,71.28
2023-11-07T19:51:28.330Z,66.47
2023-11-07T19:54:02.182Z,58.90
2023-11-07T19:56:38.529Z,54.70
2023-11-07T19:59:11.672Z,50.03
2023-11-07T20:01:46.721Z,42.45
2023-11-07T20:04:16.915Z,44.92
2023-11-07T20:09:24.304Z,39.37
2023-11-07T20:11:55.031Z,43.40
2023-11-07T20:14:28.114Z,63.47
2023-11-07T20:17:18.665Z,58.25
2023-11-07T20:19:49.710Z,65.43
2023-11-07T20:22:21.630Z,87.70
2023-11-07T20:24:55.651Z,110.23
2023-11-07T20:27:28.737Z,92.45
2023-11-07T20:29:59.594Z,86.53
2023-11-07T20:32:31.235Z,86.95
2023-11-07T20:35:02.418Z,72.13
2023-11-07T20:37:33.295Z,59.47
2023-11-07T20:40:05.523Z,110.60
2023-11-07T20:42:39.932Z,80.38
2023-11-07T20:45:15.296Z,72.05
2023-11-07T20:47:46.137Z,50.60
2023-11-07T20:50:18.136Z,58.05
2023-11-07T20:52:48.803Z,55.40
2023-11-07T20:55:20.611Z,69.43
2023-11-07T20:57:58.420Z,69.63
2023-11-07T21:00:32.521Z,64.20
2023-11-07T21:03:02.689Z,68.75
2023-11-07T21:05:37.961Z,69.50
2023-11-07T21:08:18.974Z,70.32
2023-11-07T21:10:51.257Z,69.00
2023-11-07T21:13:20.913Z,53.00
2023-11-07T21:15:49.745Z,51.20
2023-11-07T21:18:19.038Z,54.22
2023-11-07T21:20:48.145Z,62.13
2023-11-07T21:23:17.939Z,69.50
2023-11-07T21:25:46.954Z,73.90
2023-11-07T21:28:23.517Z,70.85
2023-11-07T21:30:56.063Z,62.15
2023-11-07T21:33:25.652Z,78.13
2023-11-07T21:35:55.735Z,69.15
2023-11-07T21:38:24.915Z,72.10
2023-11-07T21:40:57.221Z,72.53
2023-11-07T21:43:29.251Z,71.10
2023-11-07T21:46:01.666Z,74.25
2023-11-07T21:51:02.025Z,70.22
2023-11-07T21:53:33.794Z,64.32
2023-11-07T21:56:02.659Z,62.85
2023-11-07T21:58:32.802Z,69.93
2023-11-07T22:01:01.374Z,98.10
2023-11-07T22:03:31.101Z,170.30
2023-11-07T22:05:59.868Z,124.97
2023-11-07T22:08:28.571Z,106.85
2023-11-07T22:10:57.474Z,83.45
2023-11-07T22:13:26.131Z,133.50
2023-11-07T22:15:56.252Z,107.85
2023-11-07T22:18:25.325Z,84.60
2023-11-07T22:20:53.925Z,66.97
2023-11-07T22:23:24.224Z,56.13
2023-11-07T22:25:52.684Z,60.78
2023-11-07T22:28:21.162Z,66.60
2023-11-07T22:30:49.696Z,70.72
2023-11-07T22:33:19.792Z,62.83
2023-11-07T22:35:52.817Z,58.72
2023-11-07T22:38:21.808Z,51.45
2023-11-07T22:40:50.890Z,50.53
2023-11-07T22:43:21.083Z,50.70
2023-11-07T22:45:49.648Z,46.45
2023-11-07T22:48:20.368Z,45.05
2023-11-07T22:50:49.069Z,41.25
2023-11-07T22:53:19.677Z,45.97
2023-11-07T22:55:48.761Z,45.28
2023-11-07T22:58:17.298Z,44.55
2023-11-07T23:00:49.944Z,41.10
2023-11-07T23:05:49.782Z,40.05
2023-11-07T23:08:18.382Z,40.72
2023-11-07T23:10:46.844Z,42.00
2023-11-07T23:13:16.319Z,41.47
2023-11-07T23:15:48.584Z,42.95
2023-11-07T23:18:17.244Z,40.03
2023-11-07T23:20:47.499Z,44.83
2023-11-07T23:23:15.925Z,43.80
2023-11-07T23:25:45.334Z,41.00
2023-11-07T23:28:13.950Z,38.58
2023-11-07T23:30:42.755Z,43.58
2023-11-07T23:33:12.387Z,39.17
2023-11-07T23:35:41.282Z,38.92
2023-11-07T23:38:11.437Z,40.47
2023-11-07T23:40:40.666Z,41.13
2023-11-07T23:43:09.022Z,39.95
2023-11-07T23:45:38.801Z,42.47
2023-11-07T23:48:07.432Z,38.10
2023-11-07T23:50:36.000Z,42.28
2023-11-07T23:53:04.370Z,40.38
2023-11-07T23:55:34.259Z,43.47
2023-11-07T23:58:02.669Z,40.38
